Forside
METAR-TAF:

METAR-TAF

Lufthavne :

Wick, Skotland

Breddekreds: 58-27N, længdekreds: 003-05W, højde: 39 m

Aktuelle vejr

Denne rapport blev lavet for 25 minutter siden, kl. 13:50 UTC
Vind 23 kt fra vestnordvest
Temperatur 9°C
Fugtighed 71%
Tryk 1030 hPa
Sigt 10 km eller mere

METAR: EGPC 311350Z AUTO 30023KT 9999 BKN021/// BKN029/// 09/04 Q1030

Tid: 15:15 (14:15 UTC)

Vejrudsigter

Denne rapport blev lavet for 3 timer og 12 minutter siden, kl. 11:03 UTC
Foreløbig gælder fra 31 på 12 UTC til 31 på 21 UTC
Vind 17 kt fra vestnordvest
Sigt 10 km eller mere
Spredte skyer i en højde af 2500 ft
Midlertidig
fra 31 på 12 UTC til 31 på 21 UTC
Sigt: 6000 m
Brudte skyer i en højde af 1400 ft
regnbyger

TAF: EGPC 311103Z 3112/3121 29017KT 9999 SCT025 TEMPO 3112/3121 6000 SHRA BKN014

Vejrobservationer og prognoser fra mere end 4000 lufthavne (METAR og TAF).

De gule og røde prikker repræsenterer de meteorologiske stationer.

Flyt musen over at se navnet på stationen.

Så klik over at se vejr observationer og prognoser.

At skifte det kort: Klik på de grønne knapper med et sort kors for at zoome ind; på den grønne knap med en bindestreg for at zoome ud; eller på de grønne pile for tilstødende kort.


METAR-TAF: